sensor_id;sensor_type;location;lat;lon;timestamp;temperature;humidity
37240;DHT22;23130;48.760;9.178;2023-11-21T00:00:54;7.20;99.90
37240;DHT22;23130;48.760;9.178;2023-11-21T00:03:20;7.30;99.90
37240;DHT22;23130;48.760;9.178;2023-11-21T00:05:45;7.20;99.90
37240;DHT22;23130;48.760;9.178;2023-11-21T00:08:11;7.20;99.90
37240;DHT22;23130;48.760;9.178;2023-11-21T00:10:37;7.20;99.90
37240;DHT22;23130;48.760;9.178;2023-11-21T00:13:03;7.20;99.90
37240;DHT22;23130;48.760;9.178;2023-11-21T00:15:29;7.20;99.90
37240;DHT22;23130;48.760;9.178;2023-11-21T00:17:54;7.20;99.90
37240;DHT22;23130;48.760;9.178;2023-11-21T00:20:20;7.20;99.90
37240;DHT22;23130;48.760;9.178;2023-11-21T00:22:45;7.10;99.90
37240;DHT22;23130;48.760;9.178;2023-11-21T00:25:13;7.10;99.90
37240;DHT22;23130;48.760;9.178;2023-11-21T00:27:41;7.20;99.90
37240;DHT22;23130;48.760;9.178;2023-11-21T00:30:06;7.30;99.90
37240;DHT22;23130;48.760;9.178;2023-11-21T00:32:37;7.30;99.90
37240;DHT22;23130;48.760;9.178;2023-11-21T00:35:02;7.30;99.90
37240;DHT22;23130;48.760;9.178;2023-11-21T00:37:28;7.30;99.90
37240;DHT22;23130;48.760;9.178;2023-11-21T00:39:53;7.40;99.90
37240;DHT22;23130;48.760;9.178;2023-11-21T00:42:19;7.40;99.90
37240;DHT22;23130;48.760;9.178;2023-11-21T00:44:44;7.40;99.90
37240;DHT22;23130;48.760;9.178;2023-11-21T00:47:11;7.40;99.90
37240;DHT22;23130;48.760;9.178;2023-11-21T00:49:37;7.40;99.90
37240;DHT22;23130;48.760;9.178;2023-11-21T00:52:06;7.40;99.90
37240;DHT22;23130;48.760;9.178;2023-11-21T00:54:31;7.40;99.90
37240;DHT22;23130;48.760;9.178;2023-11-21T00:56:58;7.50;99.90
37240;DHT22;23130;48.760;9.178;2023-11-21T00:59:23;7.40;99.90
37240;DHT22;23130;48.760;9.178;2023-11-21T01:01:50;7.30;99.90
37240;DHT22;23130;48.760;9.178;2023-11-21T01:04:16;7.40;99.90
37240;DHT22;23130;48.760;9.178;2023-11-21T01:06:42;7.30;99.90
37240;DHT22;23130;48.760;9.178;2023-11-21T01:09:09;7.30;99.90
37240;DHT22;23130;48.760;9.178;2023-11-21T01:11:34;7.40;99.90
37240;DHT22;23130;48.760;9.178;2023-11-21T01:14:04;7.40;99.90
37240;DHT22;23130;48.760;9.178;2023-11-21T01:16:30;7.40;99.90
37240;DHT22;23130;48.760;9.178;2023-11-21T01:18:58;7.40;99.90
37240;DHT22;23130;48.760;9.178;2023-11-21T01:21:24;7.40;99.90
37240;DHT22;23130;48.760;9.178;2023-11-21T01:23:49;7.40;99.90
37240;DHT22;23130;48.760;9.178;2023-11-21T01:26:15;7.40;99.90
37240;DHT22;23130;48.760;9.178;2023-11-21T01:28:41;7.30;99.90
37240;DHT22;23130;48.760;9.178;2023-11-21T01:31:06;7.40;99.90
37240;DHT22;23130;48.760;9.178;2023-11-21T01:33:32;7.40;99.90
37240;DHT22;23130;48.760;9.178;2023-11-21T01:35:58;7.40;99.90
37240;DHT22;23130;48.760;9.178;2023-11-21T01:38:25;7.40;99.90
37240;DHT22;23130;48.760;9.178;2023-11-21T01:40:50;7.40;99.90
37240;DHT22;23130;48.760;9.178;2023-11-21T01:43:16;7.40;99.90
37240;DHT22;23130;48.760;9.178;2023-11-21T01:45:42;7.40;99.90
37240;DHT22;23130;48.760;9.178;2023-11-21T01:48:08;7.40;99.90
37240;DHT22;23130;48.760;9.178;2023-11-21T01:50:34;7.40;99.90
37240;DHT22;23130;48.760;9.178;2023-11-21T01:53:00;7.40;99.90
37240;DHT22;23130;48.760;9.178;2023-11-21T01:55:26;7.40;99.90
37240;DHT22;23130;48.760;9.178;2023-11-21T01:57:53;7.40;99.90
37240;DHT22;23130;48.760;9.178;2023-11-21T02:00:20;7.40;99.90
37240;DHT22;23130;48.760;9.178;2023-11-21T02:02:46;7.40;99.90
37240;DHT22;23130;48.760;9.178;2023-11-21T02:05:13;7.40;99.90
37240;DHT22;23130;48.760;9.178;2023-11-21T02:07:41;7.30;99.90
37240;DHT22;23130;48.760;9.178;2023-11-21T02:10:08;7.30;99.90
37240;DHT22;23130;48.760;9.178;2023-11-21T02:12:34;7.30;99.90
37240;DHT22;23130;48.760;9.178;2023-11-21T02:15:01;7.30;99.90
37240;DHT22;23130;48.760;9.178;2023-11-21T02:17:28;7.30;99.90
37240;DHT22;23130;48.760;9.178;2023-11-21T02:19:54;7.30;99.90
37240;DHT22;23130;48.760;9.178;2023-11-21T02:22:19;7.30;99.90
37240;DHT22;23130;48.760;9.178;2023-11-21T02:24:45;7.30;99.90
37240;DHT22;23130;48.760;9.178;2023-11-21T02:27:11;7.40;99.90
37240;DHT22;23130;48.760;9.178;2023-11-21T02:29:37;7.40;99.90
37240;DHT22;23130;48.760;9.178;2023-11-21T02:32:03;7.30;99.90
37240;DHT22;23130;48.760;9.178;2023-11-21T02:34:29;7.30;99.90
37240;DHT22;23130;48.760;9.178;2023-11-21T02:36:54;7.30;99.90
37240;DHT22;23130;48.760;9.178;2023-11-21T02:39:20;7.30;99.90
37240;DHT22;23130;48.760;9.178;2023-11-21T02:41:48;7.30;99.90
37240;DHT22;23130;48.760;9.178;2023-11-21T02:44:13;7.30;99.90
37240;DHT22;23130;48.760;9.178;2023-11-21T02:46:39;7.30;99.90
37240;DHT22;23130;48.760;9.178;2023-11-21T02:49:05;7.30;99.90
37240;DHT22;23130;48.760;9.178;2023-11-21T02:51:35;7.20;99.90
37240;DHT22;23130;48.760;9.178;2023-11-21T02:54:01;7.20;99.90
37240;DHT22;23130;48.760;9.178;2023-11-21T02:56:30;7.10;99.90
37240;DHT22;23130;48.760;9.178;2023-11-21T02:58:56;7.00;99.90
37240;DHT22;23130;48.760;9.178;2023-11-21T03:01:22;7.00;99.90
37240;DHT22;23130;48.760;9.178;2023-11-21T03:03:49;7.00;99.90
37240;DHT22;23130;48.760;9.178;2023-11-21T03:06:17;6.90;99.90
37240;DHT22;23130;48.760;9.178;2023-11-21T03:08:43;7.00;99.90
37240;DHT22;23130;48.760;9.178;2023-11-21T03:11:09;6.90;99.90
37240;DHT22;23130;48.760;9.178;2023-11-21T03:13:34;6.90;99.90
37240;DHT22;23130;48.760;9.178;2023-11-21T03:16:00;6.90;99.90
37240;DHT22;23130;48.760;9.178;2023-11-21T03:18:25;6.90;99.90
37240;DHT22;23130;48.760;9.178;2023-11-21T03:20:52;7.00;99.90
37240;DHT22;23130;48.760;9.178;2023-11-21T03:23:17;7.00;99.90
37240;DHT22;23130;48.760;9.178;2023-11-21T03:25:44;7.00;99.90
37240;DHT22;23130;48.760;9.178;2023-11-21T03:28:09;7.00;99.90
37240;DHT22;23130;48.760;9.178;2023-11-21T03:30:36;7.00;99.90
37240;DHT22;23130;48.760;9.178;2023-11-21T03:33:01;7.00;99.90
37240;DHT22;23130;48.760;9.178;2023-11-21T03:35:27;7.00;99.90
37240;DHT22;23130;48.760;9.178;2023-11-21T03:37:54;7.00;99.90
37240;DHT22;23130;48.760;9.178;2023-11-21T03:40:20;7.10;99.90
37240;DHT22;23130;48.760;9.178;2023-11-21T03:42:46;7.10;99.90
37240;DHT22;23130;48.760;9.178;2023-11-21T03:45:12;7.10;99.90
37240;DHT22;23130;48.760;9.178;2023-11-21T03:47:37;7.20;99.90
37240;DHT22;23130;48.760;9.178;2023-11-21T03:50:03;7.10;99.90
37240;DHT22;23130;48.760;9.178;2023-11-21T03:52:29;7.10;99.90
37240;DHT22;23130;48.760;9.178;2023-11-21T03:54:54;7.10;99.90
37240;DHT22;23130;48.760;9.178;2023-11-21T03:57:20;7.20;99.90
37240;DHT22;23130;48.760;9.178;2023-11-21T03:59:46;7.20;99.90
37240;DHT22;23130;48.760;9.178;2023-11-21T04:02:11;7.10;99.90
37240;DHT22;23130;48.760;9.178;2023-11-21T04:04:37;7.20;99.90
37240;DHT22;23130;48.760;9.178;2023-11-21T04:07:03;7.20;99.90
37240;DHT22;23130;48.760;9.178;2023-11-21T04:09:29;7.20;99.90
37240;DHT22;23130;48.760;9.178;2023-11-21T04:11:55;7.10;99.90
37240;DHT22;23130;48.760;9.178;2023-11-21T04:14:20;7.20;99.90
37240;DHT22;23130;48.760;9.178;2023-11-21T04:16:46;7.20;99.90
37240;DHT22;23130;48.760;9.178;2023-11-21T04:19:11;7.10;99.90
37240;DHT22;23130;48.760;9.178;2023-11-21T04:21:40;7.10;99.90
37240;DHT22;23130;48.760;9.178;2023-11-21T04:24:06;7.10;99.90
37240;DHT22;23130;48.760;9.178;2023-11-21T04:26:31;7.10;99.90
37240;DHT22;23130;48.760;9.178;2023-11-21T04:28:57;7.10;99.90
37240;DHT22;23130;48.760;9.178;2023-11-21T04:31:22;7.10;99.90
37240;DHT22;23130;48.760;9.178;2023-11-21T04:33:49;7.10;99.90
37240;DHT22;23130;48.760;9.178;2023-11-21T04:36:16;7.10;99.90
37240;DHT22;23130;48.760;9.178;2023-11-21T04:38:41;7.10;99.90
37240;DHT22;23130;48.760;9.178;2023-11-21T04:41:07;7.00;99.90
37240;DHT22;23130;48.760;9.178;2023-11-21T04:43:32;7.00;99.90
37240;DHT22;23130;48.760;9.178;2023-11-21T04:45:58;7.00;99.90
37240;DHT22;23130;48.760;9.178;2023-11-21T04:48:23;7.00;99.90
37240;DHT22;23130;48.760;9.178;2023-11-21T04:50:49;6.90;99.90
37240;DHT22;23130;48.760;9.178;2023-11-21T04:53:15;6.80;99.90
37240;DHT22;23130;48.760;9.178;2023-11-21T04:55:42;6.70;99.90
37240;DHT22;23130;48.760;9.178;2023-11-21T04:58:07;6.70;99.90
37240;DHT22;23130;48.760;9.178;2023-11-21T05:00:34;6.70;99.90
37240;DHT22;23130;48.760;9.178;2023-11-21T05:03:00;6.60;99.90
37240;DHT22;23130;48.760;9.178;2023-11-21T05:05:29;6.60;99.90
37240;DHT22;23130;48.760;9.178;2023-11-21T05:07:57;6.60;99.90
37240;DHT22;23130;48.760;9.178;2023-11-21T05:10:23;6.60;99.90
37240;DHT22;23130;48.760;9.178;2023-11-21T05:12:48;6.70;99.90
37240;DHT22;23130;48.760;9.178;2023-11-21T05:15:15;6.70;99.90
37240;DHT22;23130;48.760;9.178;2023-11-21T05:17:49;6.80;99.90
37240;DHT22;23130;48.760;9.178;2023-11-21T05:20:19;6.90;99.90
37240;DHT22;23130;48.760;9.178;2023-11-21T05:22:46;6.90;99.90
37240;DHT22;23130;48.760;9.178;2023-11-21T05:25:13;6.90;99.90
37240;DHT22;23130;48.760;9.178;2023-11-21T05:27:40;6.90;99.90
37240;DHT22;23130;48.760;9.178;2023-11-21T05:30:06;7.00;99.90
37240;DHT22;23130;48.760;9.178;2023-11-21T05:32:32;7.00;99.90
37240;DHT22;23130;48.760;9.178;2023-11-21T05:34:58;7.00;99.90
37240;DHT22;23130;48.760;9.178;2023-11-21T05:37:24;7.00;99.90
37240;DHT22;23130;48.760;9.178;2023-11-21T05:39:52;6.90;99.90
37240;DHT22;23130;48.760;9.178;2023-11-21T05:42:18;6.90;99.90
37240;DHT22;23130;48.760;9.178;2023-11-21T05:44:43;6.90;99.90
37240;DHT22;23130;48.760;9.178;2023-11-21T05:47:09;6.90;99.90
37240;DHT22;23130;48.760;9.178;2023-11-21T05:49:35;6.90;99.90
37240;DHT22;23130;48.760;9.178;2023-11-21T05:52:01;6.80;99.90
37240;DHT22;23130;48.760;9.178;2023-11-21T05:54:26;6.80;99.90
37240;DHT22;23130;48.760;9.178;2023-11-21T05:56:52;6.80;99.90
37240;DHT22;23130;48.760;9.178;2023-11-21T05:59:18;6.70;99.90
37240;DHT22;23130;48.760;9.178;2023-11-21T06:01:43;6.70;99.90
37240;DHT22;23130;48.760;9.178;2023-11-21T06:04:11;6.60;99.90
37240;DHT22;23130;48.760;9.178;2023-11-21T06:06:38;6.60;99.90
37240;DHT22;23130;48.760;9.178;2023-11-21T06:09:04;6.60;99.90
37240;DHT22;23130;48.760;9.178;2023-11-21T06:11:31;6.70;99.90
37240;DHT22;23130;48.760;9.178;2023-11-21T06:13:56;6.60;99.90
37240;DHT22;23130;48.760;9.178;2023-11-21T06:16:22;6.60;99.90
37240;DHT22;23130;48.760;9.178;2023-11-21T06:18:47;6.60;99.90
37240;DHT22;23130;48.760;9.178;2023-11-21T06:21:13;6.70;99.90
37240;DHT22;23130;48.760;9.178;2023-11-21T06:23:38;6.70;99.90
37240;DHT22;23130;48.760;9.178;2023-11-21T06:26:04;6.70;99.90
37240;DHT22;23130;48.760;9.178;2023-11-21T06:28:33;6.70;99.90
37240;DHT22;23130;48.760;9.178;2023-11-21T06:30:59;6.70;99.90
37240;DHT22;23130;48.760;9.178;2023-11-21T06:33:33;6.70;99.90
37240;DHT22;23130;48.760;9.178;2023-11-21T06:35:59;6.70;99.90
37240;DHT22;23130;48.760;9.178;2023-11-21T06:38:25;6.80;99.90
37240;DHT22;23130;48.760;9.178;2023-11-21T06:40:53;6.70;99.90
37240;DHT22;23130;48.760;9.178;2023-11-21T06:43:20;6.70;99.90
37240;DHT22;23130;48.760;9.178;2023-11-21T06:45:47;6.80;99.90
37240;DHT22;23130;48.760;9.178;2023-11-21T06:48:16;6.80;99.90
37240;DHT22;23130;48.760;9.178;2023-11-21T06:50:41;6.80;99.90
37240;DHT22;23130;48.760;9.178;2023-11-21T06:53:07;6.80;99.90
37240;DHT22;23130;48.760;9.178;2023-11-21T06:55:34;6.80;99.90
37240;DHT22;23130;48.760;9.178;2023-11-21T06:58:00;6.90;99.90
37240;DHT22;23130;48.760;9.178;2023-11-21T07:00:26;6.90;99.90
37240;DHT22;23130;48.760;9.178;2023-11-21T07:02:53;7.00;99.90
37240;DHT22;23130;48.760;9.178;2023-11-21T07:05:20;7.00;99.90
37240;DHT22;23130;48.760;9.178;2023-11-21T07:07:47;7.10;99.90
37240;DHT22;23130;48.760;9.178;2023-11-21T07:10:13;7.10;99.90
37240;DHT22;23130;48.760;9.178;2023-11-21T07:12:40;7.20;99.90
37240;DHT22;23130;48.760;9.178;2023-11-21T07:15:06;7.20;99.90
37240;DHT22;23130;48.760;9.178;2023-11-21T07:17:35;7.20;99.90
37240;DHT22;23130;48.760;9.178;2023-11-21T07:20:02;7.20;99.90
37240;DHT22;23130;48.760;9.178;2023-11-21T07:22:28;7.20;99.90
37240;DHT22;23130;48.760;9.178;2023-11-21T07:24:55;7.30;99.90
37240;DHT22;23130;48.760;9.178;2023-11-21T07:27:22;7.30;99.90
37240;DHT22;23130;48.760;9.178;2023-11-21T07:29:47;7.30;99.90
37240;DHT22;23130;48.760;9.178;2023-11-21T07:32:14;7.30;99.90
37240;DHT22;23130;48.760;9.178;2023-11-21T07:34:40;7.40;99.90
37240;DHT22;23130;48.760;9.178;2023-11-21T07:37:06;7.40;99.90
37240;DHT22;23130;48.760;9.178;2023-11-21T07:39:32;7.40;99.90
37240;DHT22;23130;48.760;9.178;2023-11-21T07:41:57;7.40;99.90
37240;DHT22;23130;48.760;9.178;2023-11-21T07:44:23;7.40;99.90
37240;DHT22;23130;48.760;9.178;2023-11-21T07:46:48;7.40;99.90
37240;DHT22;23130;48.760;9.178;2023-11-21T07:49:15;7.50;99.90
37240;DHT22;23130;48.760;9.178;2023-11-21T07:51:41;7.50;99.90
37240;DHT22;23130;48.760;9.178;2023-11-21T07:54:07;7.50;99.90
37240;DHT22;23130;48.760;9.178;2023-11-21T07:56:32;7.50;99.90
37240;DHT22;23130;48.760;9.178;2023-11-21T07:58:58;7.60;99.90
37240;DHT22;23130;48.760;9.178;2023-11-21T08:01:24;7.70;99.90
37240;DHT22;23130;48.760;9.178;2023-11-21T08:03:49;7.70;99.90
37240;DHT22;23130;48.760;9.178;2023-11-21T08:06:17;7.80;99.90
37240;DHT22;23130;48.760;9.178;2023-11-21T08:08:42;7.70;99.90
37240;DHT22;23130;48.760;9.178;2023-11-21T08:11:08;7.80;99.90
37240;DHT22;23130;48.760;9.178;2023-11-21T08:13:35;7.70;99.90
37240;DHT22;23130;48.760;9.178;2023-11-21T08:16:00;7.90;99.90
37240;DHT22;23130;48.760;9.178;2023-11-21T08:18:30;7.90;99.90
37240;DHT22;23130;48.760;9.178;2023-11-21T08:20:56;7.90;99.90
37240;DHT22;23130;48.760;9.178;2023-11-21T08:23:21;8.00;99.90
37240;DHT22;23130;48.760;9.178;2023-11-21T08:25:51;8.00;99.90
37240;DHT22;23130;48.760;9.178;2023-11-21T08:28:18;8.00;99.90
37240;DHT22;23130;48.760;9.178;2023-11-21T08:30:43;8.00;99.90
37240;DHT22;23130;48.760;9.178;2023-11-21T08:33:09;8.00;99.90
37240;DHT22;23130;48.760;9.178;2023-11-21T08:35:36;8.00;99.90
37240;DHT22;23130;48.760;9.178;2023-11-21T08:38:02;8.00;99.90
37240;DHT22;23130;48.760;9.178;2023-11-21T08:40:28;8.00;99.90
37240;DHT22;23130;48.760;9.178;2023-11-21T08:42:54;8.00;99.90
37240;DHT22;23130;48.760;9.178;2023-11-21T08:45:20;8.10;99.90
37240;DHT22;23130;48.760;9.178;2023-11-21T08:47:46;8.20;99.90
37240;DHT22;23130;48.760;9.178;2023-11-21T08:50:12;8.30;99.90
37240;DHT22;23130;48.760;9.178;2023-11-21T08:52:38;8.40;99.90
37240;DHT22;23130;48.760;9.178;2023-11-21T08:55:06;8.60;99.90
37240;DHT22;23130;48.760;9.178;2023-11-21T08:57:40;8.70;99.90
37240;DHT22;23130;48.760;9.178;2023-11-21T09:00:07;8.90;99.90
37240;DHT22;23130;48.760;9.178;2023-11-21T09:02:36;9.10;99.90
37240;DHT22;23130;48.760;9.178;2023-11-21T09:05:08;9.20;99.90
37240;DHT22;23130;48.760;9.178;2023-11-21T09:07:35;9.40;99.90
37240;DHT22;23130;48.760;9.178;2023-11-21T09:10:01;9.60;99.90
37240;DHT22;23130;48.760;9.178;2023-11-21T09:12:27;9.80;99.90
37240;DHT22;23130;48.760;9.178;2023-11-21T09:14:52;10.00;99.90
37240;DHT22;23130;48.760;9.178;2023-11-21T09:17:19;10.10;99.90
37240;DHT22;23130;48.760;9.178;2023-11-21T09:19:44;10.10;99.90
37240;DHT22;23130;48.760;9.178;2023-11-21T09:22:18;10.20;99.90
37240;DHT22;23130;48.760;9.178;2023-11-21T09:24:43;10.30;99.90
37240;DHT22;23130;48.760;9.178;2023-11-21T09:27:09;10.40;99.90
37240;DHT22;23130;48.760;9.178;2023-11-21T09:29:37;10.50;99.90
37240;DHT22;23130;48.760;9.178;2023-11-21T09:32:07;10.70;99.90
37240;DHT22;23130;48.760;9.178;2023-11-21T09:34:37;10.90;99.90
37240;DHT22;23130;48.760;9.178;2023-11-21T09:37:05;11.00;99.90
37240;DHT22;23130;48.760;9.178;2023-11-21T09:39:33;11.00;99.90
37240;DHT22;23130;48.760;9.178;2023-11-21T09:42:18;11.00;99.90
37240;DHT22;23130;48.760;9.178;2023-11-21T09:44:56;10.90;99.90
37240;DHT22;23130;48.760;9.178;2023-11-21T09:47:26;10.70;99.90
37240;DHT22;23130;48.760;9.178;2023-11-21T09:49:54;10.40;99.90
37240;DHT22;23130;48.760;9.178;2023-11-21T09:52:25;10.20;99.90
37240;DHT22;23130;48.760;9.178;2023-11-21T09:54:52;9.90;99.90
37240;DHT22;23130;48.760;9.178;2023-11-21T09:57:21;9.80;99.90
37240;DHT22;23130;48.760;9.178;2023-11-21T09:59:49;9.70;99.90
37240;DHT22;23130;48.760;9.178;2023-11-21T10:02:16;9.70;99.90
37240;DHT22;23130;48.760;9.178;2023-11-21T10:04:44;9.70;99.90
37240;DHT22;23130;48.760;9.178;2023-11-21T10:07:11;9.60;99.90
37240;DHT22;23130;48.760;9.178;2023-11-21T10:09:38;9.60;99.90
37240;DHT22;23130;48.760;9.178;2023-11-21T10:12:03;9.60;99.90
37240;DHT22;23130;48.760;9.178;2023-11-21T10:14:34;9.60;99.90
37240;DHT22;23130;48.760;9.178;2023-11-21T10:17:02;9.60;99.90
37240;DHT22;23130;48.760;9.178;2023-11-21T10:19:28;9.70;99.90
37240;DHT22;23130;48.760;9.178;2023-11-21T10:21:54;9.70;99.90
37240;DHT22;23130;48.760;9.178;2023-11-21T10:24:23;9.60;99.90
37240;DHT22;23130;48.760;9.178;2023-11-21T10:26:48;9.70;99.90
37240;DHT22;23130;48.760;9.178;2023-11-21T10:29:16;9.60;99.90
37240;DHT22;23130;48.760;9.178;2023-11-21T10:31:42;9.40;99.90
37240;DHT22;23130;48.760;9.178;2023-11-21T10:34:14;9.40;99.90
37240;DHT22;23130;48.760;9.178;2023-11-21T10:36:40;9.20;99.90
37240;DHT22;23130;48.760;9.178;2023-11-21T10:39:06;9.20;99.90
37240;DHT22;23130;48.760;9.178;2023-11-21T10:41:33;9.10;99.90
37240;DHT22;23130;48.760;9.178;2023-11-21T10:43:59;9.20;99.90
37240;DHT22;23130;48.760;9.178;2023-11-21T10:46:25;9.20;99.90
37240;DHT22;23130;48.760;9.178;2023-11-21T10:48:52;9.20;99.90
37240;DHT22;23130;48.760;9.178;2023-11-21T10:51:21;9.20;99.90
37240;DHT22;23130;48.760;9.178;2023-11-21T10:53:48;9.10;99.90
37240;DHT22;23130;48.760;9.178;2023-11-21T10:56:18;9.10;99.90
37240;DHT22;23130;48.760;9.178;2023-11-21T10:58:45;9.20;99.90
37240;DHT22;23130;48.760;9.178;2023-11-21T11:01:11;9.20;99.90
37240;DHT22;23130;48.760;9.178;2023-11-21T11:03:38;9.20;99.90
37240;DHT22;23130;48.760;9.178;2023-11-21T11:06:05;9.30;99.90
37240;DHT22;23130;48.760;9.178;2023-11-21T11:08:33;9.40;99.90
37240;DHT22;23130;48.760;9.178;2023-11-21T11:11:00;9.40;99.90
37240;DHT22;23130;48.760;9.178;2023-11-21T11:13:26;9.40;99.90
37240;DHT22;23130;48.760;9.178;2023-11-21T11:15:52;9.60;99.90
37240;DHT22;23130;48.760;9.178;2023-11-21T11:18:24;9.70;99.90
37240;DHT22;23130;48.760;9.178;2023-11-21T11:20:51;9.80;99.90
37240;DHT22;23130;48.760;9.178;2023-11-21T11:31:05;10.30;99.90
37240;DHT22;23130;48.760;9.178;2023-11-21T11:33:46;10.40;99.90
37240;DHT22;23130;48.760;9.178;2023-11-21T11:38:45;10.20;99.90
37240;DHT22;23130;48.760;9.178;2023-11-21T11:41:10;10.00;99.90
37240;DHT22;23130;48.760;9.178;2023-11-21T11:43:36;9.90;99.90
37240;DHT22;23130;48.760;9.178;2023-11-21T11:46:11;9.90;99.90
37240;DHT22;23130;48.760;9.178;2023-11-21T11:48:40;10.00;99.90
37240;DHT22;23130;48.760;9.178;2023-11-21T11:51:12;10.10;99.90
37240;DHT22;23130;48.760;9.178;2023-11-21T11:53:46;10.30;99.90
37240;DHT22;23130;48.760;9.178;2023-11-21T11:59:01;10.50;99.90
37240;DHT22;23130;48.760;9.178;2023-11-21T12:01:32;10.60;99.90
37240;DHT22;23130;48.760;9.178;2023-11-21T12:07:00;10.50;99.90
37240;DHT22;23130;48.760;9.178;2023-11-21T12:09:29;10.50;99.90
37240;DHT22;23130;48.760;9.178;2023-11-21T12:11:56;10.50;99.90
37240;DHT22;23130;48.760;9.178;2023-11-21T12:14:22;10.40;99.90
37240;DHT22;23130;48.760;9.178;2023-11-21T12:16:48;10.30;99.90
37240;DHT22;23130;48.760;9.178;2023-11-21T12:19:14;10.30;99.90
37240;DHT22;23130;48.760;9.178;2023-11-21T12:21:40;10.20;99.90
37240;DHT22;23130;48.760;9.178;2023-11-21T12:24:29;10.10;99.90
37240;DHT22;23130;48.760;9.178;2023-11-21T12:26:54;10.00;99.90
37240;DHT22;23130;48.760;9.178;2023-11-21T12:29:20;10.00;99.90
37240;DHT22;23130;48.760;9.178;2023-11-21T12:31:45;10.00;99.90
37240;DHT22;23130;48.760;9.178;2023-11-21T12:34:13;9.90;99.90
37240;DHT22;23130;48.760;9.178;2023-11-21T12:36:39;9.90;99.90
37240;DHT22;23130;48.760;9.178;2023-11-21T12:39:05;9.90;99.90
37240;DHT22;23130;48.760;9.178;2023-11-21T12:41:31;9.90;99.90
37240;DHT22;23130;48.760;9.178;2023-11-21T12:43:56;9.90;99.90
37240;DHT22;23130;48.760;9.178;2023-11-21T12:46:23;9.90;99.90
37240;DHT22;23130;48.760;9.178;2023-11-21T12:48:52;9.80;99.90
37240;DHT22;23130;48.760;9.178;2023-11-21T12:51:17;9.80;99.90
37240;DHT22;23130;48.760;9.178;2023-11-21T12:53:43;9.70;99.90
37240;DHT22;23130;48.760;9.178;2023-11-21T12:56:09;9.60;99.90
37240;DHT22;23130;48.760;9.178;2023-11-21T12:58:36;9.50;99.90
37240;DHT22;23130;48.760;9.178;2023-11-21T13:01:03;9.60;99.90
37240;DHT22;23130;48.760;9.178;2023-11-21T13:03:37;9.50;99.90
37240;DHT22;23130;48.760;9.178;2023-11-21T13:06:03;9.40;99.90
37240;DHT22;23130;48.760;9.178;2023-11-21T13:08:30;9.50;99.90
37240;DHT22;23130;48.760;9.178;2023-11-21T13:10:56;9.50;99.90
37240;DHT22;23130;48.760;9.178;2023-11-21T13:13:22;9.50;99.90
37240;DHT22;23130;48.760;9.178;2023-11-21T13:15:48;9.40;99.90
37240;DHT22;23130;48.760;9.178;2023-11-21T13:18:14;9.60;99.90
37240;DHT22;23130;48.760;9.178;2023-11-21T13:20:40;9.70;99.90
37240;DHT22;23130;48.760;9.178;2023-11-21T13:23:10;9.80;99.90
37240;DHT22;23130;48.760;9.178;2023-11-21T13:25:41;9.80;99.90
37240;DHT22;23130;48.760;9.178;2023-11-21T13:28:07;9.70;99.90
37240;DHT22;23130;48.760;9.178;2023-11-21T13:30:33;9.60;99.90
37240;DHT22;23130;48.760;9.178;2023-11-21T13:32:59;9.40;99.90
37240;DHT22;23130;48.760;9.178;2023-11-21T13:35:37;9.20;99.90
37240;DHT22;23130;48.760;9.178;2023-11-21T13:38:10;9.00;99.90
37240;DHT22;23130;48.760;9.178;2023-11-21T13:40:38;8.80;99.90
37240;DHT22;23130;48.760;9.178;2023-11-21T13:43:15;8.60;99.90
37240;DHT22;23130;48.760;9.178;2023-11-21T13:45:40;8.40;99.90
37240;DHT22;23130;48.760;9.178;2023-11-21T13:48:06;8.40;99.90
37240;DHT22;23130;48.760;9.178;2023-11-21T13:50:37;8.30;99.90
37240;DHT22;23130;48.760;9.178;2023-11-21T13:53:02;8.10;99.90
37240;DHT22;23130;48.760;9.178;2023-11-21T13:55:36;8.10;99.90
37240;DHT22;23130;48.760;9.178;2023-11-21T13:58:02;8.00;99.90
37240;DHT22;23130;48.760;9.178;2023-11-21T14:00:28;8.00;99.90
37240;DHT22;23130;48.760;9.178;2023-11-21T14:03:07;8.00;99.90
37240;DHT22;23130;48.760;9.178;2023-11-21T14:05:43;8.00;99.90
37240;DHT22;23130;48.760;9.178;2023-11-21T14:08:09;8.10;99.90
37240;DHT22;23130;48.760;9.178;2023-11-21T14:10:37;8.10;99.90
37240;DHT22;23130;48.760;9.178;2023-11-21T14:13:08;8.10;99.90
37240;DHT22;23130;48.760;9.178;2023-11-21T14:15:36;8.10;99.90
37240;DHT22;23130;48.760;9.178;2023-11-21T14:18:10;8.10;99.90
37240;DHT22;23130;48.760;9.178;2023-11-21T14:20:36;8.20;99.90
37240;DHT22;23130;48.760;9.178;2023-11-21T14:23:03;8.10;99.90
37240;DHT22;23130;48.760;9.178;2023-11-21T14:25:31;8.10;99.90
37240;DHT22;23130;48.760;9.178;2023-11-21T14:27:57;8.30;99.90
37240;DHT22;23130;48.760;9.178;2023-11-21T14:30:23;8.50;99.90
37240;DHT22;23130;48.760;9.178;2023-11-21T14:32:48;8.20;99.90
37240;DHT22;23130;48.760;9.178;2023-11-21T14:35:15;8.20;99.90
37240;DHT22;23130;48.760;9.178;2023-11-21T14:37:41;8.20;99.90
37240;DHT22;23130;48.760;9.178;2023-11-21T14:40:06;8.00;99.90
37240;DHT22;23130;48.760;9.178;2023-11-21T14:42:33;8.10;99.90
37240;DHT22;23130;48.760;9.178;2023-11-21T14:45:01;8.20;99.90
37240;DHT22;23130;48.760;9.178;2023-11-21T14:47:31;8.20;99.90
37240;DHT22;23130;48.760;9.178;2023-11-21T14:49:57;8.10;99.90
37240;DHT22;23130;48.760;9.178;2023-11-21T14:52:25;8.10;99.90
37240;DHT22;23130;48.760;9.178;2023-11-21T14:55:03;8.20;99.90
37240;DHT22;23130;48.760;9.178;2023-11-21T14:57:44;8.10;99.90
37240;DHT22;23130;48.760;9.178;2023-11-21T15:00:21;8.10;99.90
37240;DHT22;23130;48.760;9.178;2023-11-21T15:03:02;8.10;99.90
37240;DHT22;23130;48.760;9.178;2023-11-21T15:05:27;8.10;99.90
37240;DHT22;23130;48.760;9.178;2023-11-21T15:07:54;8.00;99.90
37240;DHT22;23130;48.760;9.178;2023-11-21T15:10:22;8.10;99.90
37240;DHT22;23130;48.760;9.178;2023-11-21T15:12:56;8.00;99.90
37240;DHT22;23130;48.760;9.178;2023-11-21T15:15:23;8.00;99.90
37240;DHT22;23130;48.760;9.178;2023-11-21T15:17:50;8.10;99.90
37240;DHT22;23130;48.760;9.178;2023-11-21T15:20:16;8.00;99.90
37240;DHT22;23130;48.760;9.178;2023-11-21T15:22:46;8.00;99.90
37240;DHT22;23130;48.760;9.178;2023-11-21T15:25:11;8.00;99.90
37240;DHT22;23130;48.760;9.178;2023-11-21T15:27:39;8.00;99.90
37240;DHT22;23130;48.760;9.178;2023-11-21T15:30:05;8.00;99.90
37240;DHT22;23130;48.760;9.178;2023-11-21T15:32:30;8.00;99.90
37240;DHT22;23130;48.760;9.178;2023-11-21T15:34:56;8.00;99.90
37240;DHT22;23130;48.760;9.178;2023-11-21T15:37:22;8.00;99.90
37240;DHT22;23130;48.760;9.178;2023-11-21T15:39:49;8.00;99.90
37240;DHT22;23130;48.760;9.178;2023-11-21T15:42:15;8.00;99.90
37240;DHT22;23130;48.760;9.178;2023-11-21T15:44:40;8.10;99.90
37240;DHT22;23130;48.760;9.178;2023-11-21T15:47:06;8.10;99.90
37240;DHT22;23130;48.760;9.178;2023-11-21T15:49:35;8.00;99.90
37240;DHT22;23130;48.760;9.178;2023-11-21T15:52:02;8.00;99.90
37240;DHT22;23130;48.760;9.178;2023-11-21T15:54:28;8.00;99.90
37240;DHT22;23130;48.760;9.178;2023-11-21T15:56:55;7.90;99.90
37240;DHT22;23130;48.760;9.178;2023-11-21T15:59:22;7.90;99.90